sensor_id;sensor_type;location;lat;lon;timestamp;temperature;humidity
23731;DHT22;12046;44.702;10.622;2023-03-01T00:01:59;6.30;1.00
23731;DHT22;12046;44.702;10.622;2023-03-01T00:04:25;6.30;1.00
23731;DHT22;12046;44.702;10.622;2023-03-01T00:06:51;6.30;1.00
23731;DHT22;12046;44.702;10.622;2023-03-01T00:09:17;6.30;1.00
23731;DHT22;12046;44.702;10.622;2023-03-01T00:11:42;6.30;1.00
23731;DHT22;12046;44.702;10.622;2023-03-01T00:14:08;6.30;1.00
23731;DHT22;12046;44.702;10.622;2023-03-01T00:16:35;6.40;1.00
23731;DHT22;12046;44.702;10.622;2023-03-01T00:19:01;6.30;1.00
23731;DHT22;12046;44.702;10.622;2023-03-01T00:21:27;6.30;1.00
23731;DHT22;12046;44.702;10.622;2023-03-01T00:23:52;6.40;1.00
23731;DHT22;12046;44.702;10.622;2023-03-01T00:26:19;6.30;1.00
23731;DHT22;12046;44.702;10.622;2023-03-01T00:28:45;6.40;1.00
23731;DHT22;12046;44.702;10.622;2023-03-01T00:31:12;6.40;99.90
23731;DHT22;12046;44.702;10.622;2023-03-01T00:33:38;6.40;99.90
23731;DHT22;12046;44.702;10.622;2023-03-01T00:36:04;6.40;99.90
23731;DHT22;12046;44.702;10.622;2023-03-01T00:38:30;6.40;99.90
23731;DHT22;12046;44.702;10.622;2023-03-01T00:40:56;6.40;99.90
23731;DHT22;12046;44.702;10.622;2023-03-01T00:43:27;6.50;99.90
23731;DHT22;12046;44.702;10.622;2023-03-01T00:45:53;6.40;99.90
23731;DHT22;12046;44.702;10.622;2023-03-01T00:48:18;6.50;99.90
23731;DHT22;12046;44.702;10.622;2023-03-01T00:50:44;6.40;99.90
23731;DHT22;12046;44.702;10.622;2023-03-01T00:53:10;6.40;99.90
23731;DHT22;12046;44.702;10.622;2023-03-01T00:55:35;6.40;99.90
23731;DHT22;12046;44.702;10.622;2023-03-01T00:58:01;6.50;99.90
23731;DHT22;12046;44.702;10.622;2023-03-01T01:00:27;6.50;99.90
23731;DHT22;12046;44.702;10.622;2023-03-01T01:02:53;6.40;99.90
23731;DHT22;12046;44.702;10.622;2023-03-01T01:05:18;6.50;99.90
23731;DHT22;12046;44.702;10.622;2023-03-01T01:07:46;6.50;99.90
23731;DHT22;12046;44.702;10.622;2023-03-01T01:10:12;6.50;99.90
23731;DHT22;12046;44.702;10.622;2023-03-01T01:12:43;6.40;99.90
23731;DHT22;12046;44.702;10.622;2023-03-01T01:15:08;6.40;99.90
23731;DHT22;12046;44.702;10.622;2023-03-01T01:17:37;6.40;99.90
23731;DHT22;12046;44.702;10.622;2023-03-01T01:20:03;6.40;99.90
23731;DHT22;12046;44.702;10.622;2023-03-01T01:22:28;6.40;99.90
23731;DHT22;12046;44.702;10.622;2023-03-01T01:24:54;6.40;99.90
23731;DHT22;12046;44.702;10.622;2023-03-01T01:27:20;6.40;99.90
23731;DHT22;12046;44.702;10.622;2023-03-01T01:29:45;6.40;99.90
23731;DHT22;12046;44.702;10.622;2023-03-01T01:32:11;6.40;99.90
23731;DHT22;12046;44.702;10.622;2023-03-01T01:34:36;6.30;99.90
23731;DHT22;12046;44.702;10.622;2023-03-01T01:37:02;6.40;99.90
23731;DHT22;12046;44.702;10.622;2023-03-01T01:39:28;6.40;99.90
23731;DHT22;12046;44.702;10.622;2023-03-01T01:41:54;6.40;99.90
23731;DHT22;12046;44.702;10.622;2023-03-01T01:51:40;6.30;99.90
23731;DHT22;12046;44.702;10.622;2023-03-01T01:54:14;6.40;99.90
23731;DHT22;12046;44.702;10.622;2023-03-01T01:56:42;6.30;99.90
23731;DHT22;12046;44.702;10.622;2023-03-01T01:59:09;6.30;99.90
23731;DHT22;12046;44.702;10.622;2023-03-01T02:01:35;6.40;99.90
23731;DHT22;12046;44.702;10.622;2023-03-01T02:04:00;6.40;99.90
23731;DHT22;12046;44.702;10.622;2023-03-01T02:06:33;6.40;99.90
23731;DHT22;12046;44.702;10.622;2023-03-01T02:09:00;6.40;99.90
23731;DHT22;12046;44.702;10.622;2023-03-01T02:11:29;6.40;99.90
23731;DHT22;12046;44.702;10.622;2023-03-01T02:13:55;6.40;99.90
23731;DHT22;12046;44.702;10.622;2023-03-01T02:16:21;6.40;99.90
23731;DHT22;12046;44.702;10.622;2023-03-01T02:18:46;6.40;99.90
23731;DHT22;12046;44.702;10.622;2023-03-01T02:23:58;6.50;99.90
23731;DHT22;12046;44.702;10.622;2023-03-01T02:26:35;6.50;99.90
23731;DHT22;12046;44.702;10.622;2023-03-01T02:29:03;6.50;99.90
23731;DHT22;12046;44.702;10.622;2023-03-01T02:31:30;6.50;99.90
23731;DHT22;12046;44.702;10.622;2023-03-01T02:34:09;6.50;99.90
23731;DHT22;12046;44.702;10.622;2023-03-01T02:36:37;6.50;99.90
23731;DHT22;12046;44.702;10.622;2023-03-01T02:39:04;6.50;99.90
23731;DHT22;12046;44.702;10.622;2023-03-01T02:41:32;6.50;99.90
23731;DHT22;12046;44.702;10.622;2023-03-01T02:43:59;6.50;99.90
23731;DHT22;12046;44.702;10.622;2023-03-01T02:46:25;6.50;99.90
23731;DHT22;12046;44.702;10.622;2023-03-01T02:48:52;6.40;99.90
23731;DHT22;12046;44.702;10.622;2023-03-01T02:51:32;6.50;99.90
23731;DHT22;12046;44.702;10.622;2023-03-01T02:56:43;6.50;99.90
23731;DHT22;12046;44.702;10.622;2023-03-01T02:59:10;6.40;99.90
23731;DHT22;12046;44.702;10.622;2023-03-01T03:01:36;6.40;99.90
23731;DHT22;12046;44.702;10.622;2023-03-01T03:04:05;6.40;99.90
23731;DHT22;12046;44.702;10.622;2023-03-01T03:06:31;6.40;99.90
23731;DHT22;12046;44.702;10.622;2023-03-01T03:08:56;6.40;99.90
23731;DHT22;12046;44.702;10.622;2023-03-01T03:11:22;6.40;99.90
23731;DHT22;12046;44.702;10.622;2023-03-01T03:13:48;6.40;99.90
23731;DHT22;12046;44.702;10.622;2023-03-01T03:16:14;6.40;99.90
23731;DHT22;12046;44.702;10.622;2023-03-01T03:18:40;6.40;99.90
23731;DHT22;12046;44.702;10.622;2023-03-01T03:21:09;6.40;99.90
23731;DHT22;12046;44.702;10.622;2023-03-01T03:23:36;6.40;99.90
23731;DHT22;12046;44.702;10.622;2023-03-01T03:26:02;6.40;99.90
23731;DHT22;12046;44.702;10.622;2023-03-01T03:28:29;6.40;99.90
23731;DHT22;12046;44.702;10.622;2023-03-01T03:30:56;6.40;99.90
23731;DHT22;12046;44.702;10.622;2023-03-01T03:33:21;6.40;99.90
23731;DHT22;12046;44.702;10.622;2023-03-01T03:35:48;6.40;99.90
23731;DHT22;12046;44.702;10.622;2023-03-01T03:38:15;6.40;99.90
23731;DHT22;12046;44.702;10.622;2023-03-01T03:40:45;6.40;99.90
23731;DHT22;12046;44.702;10.622;2023-03-01T03:43:15;6.40;99.90
23731;DHT22;12046;44.702;10.622;2023-03-01T03:45:43;6.40;99.90
23731;DHT22;12046;44.702;10.622;2023-03-01T03:48:09;6.40;99.90
23731;DHT22;12046;44.702;10.622;2023-03-01T03:50:35;6.40;99.90
23731;DHT22;12046;44.702;10.622;2023-03-01T03:53:01;6.30;99.90
23731;DHT22;12046;44.702;10.622;2023-03-01T03:55:28;6.30;99.90
23731;DHT22;12046;44.702;10.622;2023-03-01T03:57:59;6.40;99.90
23731;DHT22;12046;44.702;10.622;2023-03-01T04:00:27;6.30;99.90
23731;DHT22;12046;44.702;10.622;2023-03-01T04:02:53;6.30;99.90
23731;DHT22;12046;44.702;10.622;2023-03-01T04:05:22;6.30;99.90
23731;DHT22;12046;44.702;10.622;2023-03-01T04:07:47;6.30;99.90
23731;DHT22;12046;44.702;10.622;2023-03-01T04:10:16;6.30;99.90
23731;DHT22;12046;44.702;10.622;2023-03-01T04:12:42;6.40;99.90
23731;DHT22;12046;44.702;10.622;2023-03-01T04:15:09;6.30;99.90
23731;DHT22;12046;44.702;10.622;2023-03-01T04:17:41;6.30;99.90
23731;DHT22;12046;44.702;10.622;2023-03-01T04:20:15;6.30;99.90
23731;DHT22;12046;44.702;10.622;2023-03-01T04:22:50;6.30;99.90
23731;DHT22;12046;44.702;10.622;2023-03-01T04:25:16;6.30;99.90
23731;DHT22;12046;44.702;10.622;2023-03-01T04:27:41;6.20;99.90
23731;DHT22;12046;44.702;10.622;2023-03-01T04:30:07;6.20;99.90
23731;DHT22;12046;44.702;10.622;2023-03-01T04:32:33;6.20;99.90
23731;DHT22;12046;44.702;10.622;2023-03-01T04:34:59;6.20;99.90
23731;DHT22;12046;44.702;10.622;2023-03-01T04:37:25;6.20;99.90
23731;DHT22;12046;44.702;10.622;2023-03-01T04:39:50;6.20;99.90
23731;DHT22;12046;44.702;10.622;2023-03-01T04:42:16;6.20;99.90
23731;DHT22;12046;44.702;10.622;2023-03-01T04:44:45;6.20;99.90
23731;DHT22;12046;44.702;10.622;2023-03-01T04:47:10;6.20;99.90
23731;DHT22;12046;44.702;10.622;2023-03-01T04:49:36;6.20;99.90
23731;DHT22;12046;44.702;10.622;2023-03-01T04:52:02;6.20;99.90
23731;DHT22;12046;44.702;10.622;2023-03-01T04:54:30;6.20;99.90
23731;DHT22;12046;44.702;10.622;2023-03-01T04:56:56;6.20;99.90
23731;DHT22;12046;44.702;10.622;2023-03-01T04:59:21;6.20;99.90
23731;DHT22;12046;44.702;10.622;2023-03-01T05:01:48;6.10;99.90
23731;DHT22;12046;44.702;10.622;2023-03-01T05:04:14;6.10;99.90
23731;DHT22;12046;44.702;10.622;2023-03-01T05:06:39;6.10;99.90
23731;DHT22;12046;44.702;10.622;2023-03-01T05:09:05;6.10;99.90
23731;DHT22;12046;44.702;10.622;2023-03-01T05:11:31;6.00;99.90
23731;DHT22;12046;44.702;10.622;2023-03-01T05:14:07;6.00;99.90
23731;DHT22;12046;44.702;10.622;2023-03-01T05:16:33;6.00;99.90
23731;DHT22;12046;44.702;10.622;2023-03-01T05:18:59;6.00;99.90
23731;DHT22;12046;44.702;10.622;2023-03-01T05:21:25;6.00;99.90
23731;DHT22;12046;44.702;10.622;2023-03-01T05:23:50;6.00;99.90
23731;DHT22;12046;44.702;10.622;2023-03-01T05:26:17;5.90;99.90
23731;DHT22;12046;44.702;10.622;2023-03-01T05:28:43;6.00;99.90
23731;DHT22;12046;44.702;10.622;2023-03-01T05:31:09;5.90;99.90
23731;DHT22;12046;44.702;10.622;2023-03-01T05:33:35;5.90;99.90
23731;DHT22;12046;44.702;10.622;2023-03-01T05:36:01;5.90;99.90
23731;DHT22;12046;44.702;10.622;2023-03-01T05:38:27;5.90;99.90
23731;DHT22;12046;44.702;10.622;2023-03-01T05:40:53;5.90;99.90
23731;DHT22;12046;44.702;10.622;2023-03-01T05:43:19;5.80;99.90
23731;DHT22;12046;44.702;10.622;2023-03-01T05:45:44;5.90;99.90
23731;DHT22;12046;44.702;10.622;2023-03-01T05:48:10;5.90;99.90
23731;DHT22;12046;44.702;10.622;2023-03-01T05:50:37;5.90;99.90
23731;DHT22;12046;44.702;10.622;2023-03-01T05:53:06;5.90;99.90
23731;DHT22;12046;44.702;10.622;2023-03-01T05:55:33;5.90;99.90
23731;DHT22;12046;44.702;10.622;2023-03-01T05:58:04;5.90;99.90
23731;DHT22;12046;44.702;10.622;2023-03-01T06:00:30;5.90;99.90
23731;DHT22;12046;44.702;10.622;2023-03-01T06:02:56;5.90;99.90
23731;DHT22;12046;44.702;10.622;2023-03-01T06:05:22;6.00;99.90
23731;DHT22;12046;44.702;10.622;2023-03-01T06:07:48;6.00;99.90
23731;DHT22;12046;44.702;10.622;2023-03-01T06:10:14;6.00;99.90
23731;DHT22;12046;44.702;10.622;2023-03-01T06:12:40;6.00;99.90
23731;DHT22;12046;44.702;10.622;2023-03-01T06:15:06;6.00;99.90
23731;DHT22;12046;44.702;10.622;2023-03-01T06:17:35;6.00;99.90
23731;DHT22;12046;44.702;10.622;2023-03-01T06:20:12;5.90;99.90
23731;DHT22;12046;44.702;10.622;2023-03-01T06:22:38;6.00;99.90
23731;DHT22;12046;44.702;10.622;2023-03-01T06:25:04;6.00;99.90
23731;DHT22;12046;44.702;10.622;2023-03-01T06:27:30;6.00;99.90
23731;DHT22;12046;44.702;10.622;2023-03-01T06:29:56;6.00;99.90
23731;DHT22;12046;44.702;10.622;2023-03-01T06:32:21;6.10;99.90
23731;DHT22;12046;44.702;10.622;2023-03-01T06:34:47;6.10;99.90
23731;DHT22;12046;44.702;10.622;2023-03-01T06:37:13;6.10;99.90
23731;DHT22;12046;44.702;10.622;2023-03-01T06:39:38;6.10;99.90
23731;DHT22;12046;44.702;10.622;2023-03-01T06:42:04;6.20;99.90
23731;DHT22;12046;44.702;10.622;2023-03-01T06:44:29;6.20;99.90
23731;DHT22;12046;44.702;10.622;2023-03-01T06:46:55;6.20;99.90
23731;DHT22;12046;44.702;10.622;2023-03-01T06:49:21;6.20;99.90
23731;DHT22;12046;44.702;10.622;2023-03-01T06:51:46;6.20;99.90
23731;DHT22;12046;44.702;10.622;2023-03-01T06:54:12;6.20;99.90
23731;DHT22;12046;44.702;10.622;2023-03-01T06:56:38;6.30;99.90
23731;DHT22;12046;44.702;10.622;2023-03-01T06:59:04;6.20;99.90
23731;DHT22;12046;44.702;10.622;2023-03-01T07:01:30;6.30;99.90
23731;DHT22;12046;44.702;10.622;2023-03-01T07:03:56;6.30;99.90
23731;DHT22;12046;44.702;10.622;2023-03-01T07:06:23;6.30;99.90
23731;DHT22;12046;44.702;10.622;2023-03-01T07:08:49;6.30;99.90
23731;DHT22;12046;44.702;10.622;2023-03-01T07:11:14;6.30;99.90
23731;DHT22;12046;44.702;10.622;2023-03-01T07:13:40;6.30;99.90
23731;DHT22;12046;44.702;10.622;2023-03-01T07:16:06;6.30;99.90
23731;DHT22;12046;44.702;10.622;2023-03-01T07:18:32;6.30;99.90
23731;DHT22;12046;44.702;10.622;2023-03-01T07:20:57;6.30;99.90
23731;DHT22;12046;44.702;10.622;2023-03-01T07:23:23;6.20;99.90
23731;DHT22;12046;44.702;10.622;2023-03-01T07:25:52;6.30;99.90
23731;DHT22;12046;44.702;10.622;2023-03-01T07:28:18;6.30;99.90
23731;DHT22;12046;44.702;10.622;2023-03-01T07:30:44;6.30;99.90
23731;DHT22;12046;44.702;10.622;2023-03-01T07:33:10;6.30;99.90
23731;DHT22;12046;44.702;10.622;2023-03-01T07:35:35;6.30;99.90
23731;DHT22;12046;44.702;10.622;2023-03-01T07:38:01;6.30;99.90
23731;DHT22;12046;44.702;10.622;2023-03-01T07:40:27;6.30;99.90
23731;DHT22;12046;44.702;10.622;2023-03-01T07:42:56;6.30;99.90
23731;DHT22;12046;44.702;10.622;2023-03-01T07:45:21;6.30;99.90
23731;DHT22;12046;44.702;10.622;2023-03-01T07:47:47;6.20;99.90
23731;DHT22;12046;44.702;10.622;2023-03-01T07:50:13;6.10;99.90
23731;DHT22;12046;44.702;10.622;2023-03-01T07:52:39;5.90;99.90
23731;DHT22;12046;44.702;10.622;2023-03-01T07:55:04;5.90;99.90
23731;DHT22;12046;44.702;10.622;2023-03-01T07:57:30;5.80;99.90
23731;DHT22;12046;44.702;10.622;2023-03-01T07:59:56;5.70;99.90
23731;DHT22;12046;44.702;10.622;2023-03-01T08:02:22;5.60;99.90
23731;DHT22;12046;44.702;10.622;2023-03-01T08:04:48;5.50;99.90
23731;DHT22;12046;44.702;10.622;2023-03-01T08:07:13;5.30;1.00
23731;DHT22;12046;44.702;10.622;2023-03-01T08:09:39;5.20;1.00
23731;DHT22;12046;44.702;10.622;2023-03-01T08:12:05;5.10;1.00
23731;DHT22;12046;44.702;10.622;2023-03-01T08:14:31;4.90;1.00
23731;DHT22;12046;44.702;10.622;2023-03-01T08:16:57;4.90;1.00
23731;DHT22;12046;44.702;10.622;2023-03-01T08:19:22;4.80;99.90
23731;DHT22;12046;44.702;10.622;2023-03-01T08:21:48;4.70;99.90
23731;DHT22;12046;44.702;10.622;2023-03-01T08:24:14;4.80;99.90
23731;DHT22;12046;44.702;10.622;2023-03-01T08:26:39;4.80;99.90
23731;DHT22;12046;44.702;10.622;2023-03-01T08:29:05;4.80;1.00
23731;DHT22;12046;44.702;10.622;2023-03-01T08:31:32;4.80;1.00
23731;DHT22;12046;44.702;10.622;2023-03-01T08:33:59;4.70;1.00
23731;DHT22;12046;44.702;10.622;2023-03-01T08:36:26;4.70;1.00
23731;DHT22;12046;44.702;10.622;2023-03-01T08:38:52;4.70;1.00
23731;DHT22;12046;44.702;10.622;2023-03-01T08:41:18;4.60;1.00
23731;DHT22;12046;44.702;10.622;2023-03-01T08:43:43;4.70;1.00
23731;DHT22;12046;44.702;10.622;2023-03-01T08:46:09;4.70;1.00
23731;DHT22;12046;44.702;10.622;2023-03-01T08:48:35;4.70;1.00
23731;DHT22;12046;44.702;10.622;2023-03-01T08:51:34;4.80;1.00
23731;DHT22;12046;44.702;10.622;2023-03-01T08:53:54;4.90;1.00
23731;DHT22;12046;44.702;10.622;2023-03-01T08:56:20;4.90;1.00
23731;DHT22;12046;44.702;10.622;2023-03-01T08:58:47;5.00;1.00
23731;DHT22;12046;44.702;10.622;2023-03-01T09:01:13;5.00;1.00
23731;DHT22;12046;44.702;10.622;2023-03-01T09:03:40;5.00;1.00
23731;DHT22;12046;44.702;10.622;2023-03-01T09:06:06;4.90;1.00
23731;DHT22;12046;44.702;10.622;2023-03-01T09:08:39;4.90;1.00
23731;DHT22;12046;44.702;10.622;2023-03-01T09:11:06;4.90;1.00
23731;DHT22;12046;44.702;10.622;2023-03-01T09:13:32;4.90;1.00
23731;DHT22;12046;44.702;10.622;2023-03-01T09:15:58;4.80;1.00
23731;DHT22;12046;44.702;10.622;2023-03-01T09:18:24;4.80;1.00
23731;DHT22;12046;44.702;10.622;2023-03-01T09:20:49;4.80;1.00
23731;DHT22;12046;44.702;10.622;2023-03-01T09:23:15;4.80;1.00
23731;DHT22;12046;44.702;10.622;2023-03-01T09:25:41;4.90;1.00
23731;DHT22;12046;44.702;10.622;2023-03-01T09:28:06;5.00;1.00
23731;DHT22;12046;44.702;10.622;2023-03-01T09:30:32;5.10;1.00
23731;DHT22;12046;44.702;10.622;2023-03-01T09:32:58;5.20;1.00
23731;DHT22;12046;44.702;10.622;2023-03-01T09:35:23;5.30;1.00
23731;DHT22;12046;44.702;10.622;2023-03-01T09:37:49;5.30;1.00
23731;DHT22;12046;44.702;10.622;2023-03-01T09:40:24;5.40;1.00
23731;DHT22;12046;44.702;10.622;2023-03-01T09:43:05;5.40;1.00
23731;DHT22;12046;44.702;10.622;2023-03-01T09:45:33;5.40;1.00
23731;DHT22;12046;44.702;10.622;2023-03-01T09:48:00;5.40;1.00
23731;DHT22;12046;44.702;10.622;2023-03-01T09:50:28;5.40;1.00
23731;DHT22;12046;44.702;10.622;2023-03-01T09:53:01;5.40;1.00
23731;DHT22;12046;44.702;10.622;2023-03-01T09:55:31;5.40;1.00
23731;DHT22;12046;44.702;10.622;2023-03-01T09:58:00;5.40;1.00
23731;DHT22;12046;44.702;10.622;2023-03-01T10:00:39;5.50;1.00
23731;DHT22;12046;44.702;10.622;2023-03-01T10:03:16;5.70;1.00
23731;DHT22;12046;44.702;10.622;2023-03-01T10:05:50;5.70;1.00
23731;DHT22;12046;44.702;10.622;2023-03-01T10:08:26;5.80;1.00
23731;DHT22;12046;44.702;10.622;2023-03-01T10:10:54;5.80;1.00
23731;DHT22;12046;44.702;10.622;2023-03-01T10:13:28;5.80;1.00
23731;DHT22;12046;44.702;10.622;2023-03-01T10:15:56;5.80;1.00
23731;DHT22;12046;44.702;10.622;2023-03-01T10:18:26;5.80;46.10
23731;DHT22;12046;44.702;10.622;2023-03-01T10:20:57;5.80;64.60
23731;DHT22;12046;44.702;10.622;2023-03-01T10:23:24;5.80;58.90
23731;DHT22;12046;44.702;10.622;2023-03-01T10:25:54;5.90;48.40
23731;DHT22;12046;44.702;10.622;2023-03-01T10:28:29;5.90;43.40
23731;DHT22;12046;44.702;10.622;2023-03-01T10:30:56;5.80;36.70
23731;DHT22;12046;44.702;10.622;2023-03-01T10:33:26;5.80;69.50
23731;DHT22;12046;44.702;10.622;2023-03-01T10:35:53;5.80;75.20
23731;DHT22;12046;44.702;10.622;2023-03-01T10:38:19;5.90;83.10
23731;DHT22;12046;44.702;10.622;2023-03-01T10:43:19;5.90;59.20
23731;DHT22;12046;44.702;10.622;2023-03-01T10:45:44;5.90;60.30
23731;DHT22;12046;44.702;10.622;2023-03-01T10:48:23;6.00;62.20
23731;DHT22;12046;44.702;10.622;2023-03-01T10:51:04;6.10;78.60
23731;DHT22;12046;44.702;10.622;2023-03-01T10:53:37;6.10;85.70
23731;DHT22;12046;44.702;10.622;2023-03-01T10:56:08;6.20;99.90
23731;DHT22;12046;44.702;10.622;2023-03-01T10:58:37;6.10;99.90
23731;DHT22;12046;44.702;10.622;2023-03-01T11:01:03;6.10;99.90
23731;DHT22;12046;44.702;10.622;2023-03-01T11:03:36;6.10;99.90
23731;DHT22;12046;44.702;10.622;2023-03-01T11:11:29;6.20;99.90
23731;DHT22;12046;44.702;10.622;2023-03-01T11:16:38;6.20;99.90
23731;DHT22;12046;44.702;10.622;2023-03-01T11:21:32;6.10;99.90
23731;DHT22;12046;44.702;10.622;2023-03-01T11:24:01;6.10;99.90
23731;DHT22;12046;44.702;10.622;2023-03-01T11:26:31;6.00;99.90
23731;DHT22;12046;44.702;10.622;2023-03-01T11:29:00;6.00;99.90
23731;DHT22;12046;44.702;10.622;2023-03-01T11:31:30;6.00;99.90
23731;DHT22;12046;44.702;10.622;2023-03-01T11:34:13;6.00;99.90
23731;DHT22;12046;44.702;10.622;2023-03-01T11:36:48;6.00;99.90
23731;DHT22;12046;44.702;10.622;2023-03-01T11:39:27;6.00;99.90
23731;DHT22;12046;44.702;10.622;2023-03-01T11:42:01;6.00;99.90
23731;DHT22;12046;44.702;10.622;2023-03-01T11:44:28;6.00;99.90
23731;DHT22;12046;44.702;10.622;2023-03-01T11:47:02;6.00;99.90
23731;DHT22;12046;44.702;10.622;2023-03-01T11:54:59;5.90;99.90
23731;DHT22;12046;44.702;10.622;2023-03-01T12:00:30;5.70;99.90
23731;DHT22;12046;44.702;10.622;2023-03-01T12:10:37;5.70;99.90
23731;DHT22;12046;44.702;10.622;2023-03-01T12:19:01;5.60;99.90
23731;DHT22;12046;44.702;10.622;2023-03-01T12:26:31;5.30;99.90
23731;DHT22;12046;44.702;10.622;2023-03-01T12:29:14;5.30;99.90
23731;DHT22;12046;44.702;10.622;2023-03-01T12:37:08;5.10;99.90
23731;DHT22;12046;44.702;10.622;2023-03-01T12:42:08;5.00;99.90
23731;DHT22;12046;44.702;10.622;2023-03-01T12:49:51;5.00;99.90
23731;DHT22;12046;44.702;10.622;2023-03-01T12:52:27;5.00;99.90
23731;DHT22;12046;44.702;10.622;2023-03-01T12:54:58;5.00;99.90
23731;DHT22;12046;44.702;10.622;2023-03-01T12:57:29;5.00;99.90
23731;DHT22;12046;44.702;10.622;2023-03-01T13:00:09;5.00;99.90
23731;DHT22;12046;44.702;10.622;2023-03-01T13:02:52;5.00;99.90
23731;DHT22;12046;44.702;10.622;2023-03-01T13:21:07;4.90;99.90
23731;DHT22;12046;44.702;10.622;2023-03-01T13:23:35;4.90;99.90
23731;DHT22;12046;44.702;10.622;2023-03-01T13:26:17;4.90;99.90
23731;DHT22;12046;44.702;10.622;2023-03-01T13:28:46;4.90;99.90
23731;DHT22;12046;44.702;10.622;2023-03-01T13:36:07;5.00;99.90
23731;DHT22;12046;44.702;10.622;2023-03-01T13:41:03;4.90;99.90
23731;DHT22;12046;44.702;10.622;2023-03-01T13:43:30;4.90;99.90
23731;DHT22;12046;44.702;10.622;2023-03-01T13:45:58;4.90;99.90
23731;DHT22;12046;44.702;10.622;2023-03-01T13:48:26;4.90;99.90
23731;DHT22;12046;44.702;10.622;2023-03-01T13:50:54;5.00;99.90
23731;DHT22;12046;44.702;10.622;2023-03-01T13:53:22;5.00;99.90
23731;DHT22;12046;44.702;10.622;2023-03-01T13:58:43;4.90;99.90
23731;DHT22;12046;44.702;10.622;2023-03-01T14:01:26;4.90;99.90
23731;DHT22;12046;44.702;10.622;2023-03-01T14:03:52;4.90;99.90
23731;DHT22;12046;44.702;10.622;2023-03-01T14:06:22;4.90;99.90
23731;DHT22;12046;44.702;10.622;2023-03-01T14:09:00;4.90;99.90
23731;DHT22;12046;44.702;10.622;2023-03-01T14:14:18;4.80;99.90
23731;DHT22;12046;44.702;10.622;2023-03-01T14:16:54;4.80;99.90
23731;DHT22;12046;44.702;10.622;2023-03-01T14:19:32;4.70;99.90
23731;DHT22;12046;44.702;10.622;2023-03-01T14:24:33;4.60;99.90
23731;DHT22;12046;44.702;10.622;2023-03-01T14:27:02;4.50;99.90
23731;DHT22;12046;44.702;10.622;2023-03-01T14:29:38;4.50;99.90
23731;DHT22;12046;44.702;10.622;2023-03-01T14:34:36;4.50;99.90
23731;DHT22;12046;44.702;10.622;2023-03-01T14:37:11;4.40;99.90
23731;DHT22;12046;44.702;10.622;2023-03-01T14:39:40;4.40;99.90
23731;DHT22;12046;44.702;10.622;2023-03-01T14:42:08;4.30;99.90
23731;DHT22;12046;44.702;10.622;2023-03-01T14:44:40;4.30;99.90
23731;DHT22;12046;44.702;10.622;2023-03-01T14:47:16;4.20;99.90
23731;DHT22;12046;44.702;10.622;2023-03-01T14:49:45;4.20;99.90
23731;DHT22;12046;44.702;10.622;2023-03-01T14:52:18;4.20;99.90
23731;DHT22;12046;44.702;10.622;2023-03-01T14:54:49;4.10;99.90
23731;DHT22;12046;44.702;10.622;2023-03-01T14:57:16;4.10;99.90
23731;DHT22;12046;44.702;10.622;2023-03-01T14:59:42;4.00;99.90
23731;DHT22;12046;44.702;10.622;2023-03-01T15:02:10;4.10;99.90
23731;DHT22;12046;44.702;10.622;2023-03-01T15:04:37;4.10;99.90
23731;DHT22;12046;44.702;10.622;2023-03-01T15:07:03;4.10;99.90
23731;DHT22;12046;44.702;10.622;2023-03-01T15:09:30;4.20;99.90
23731;DHT22;12046;44.702;10.622;2023-03-01T15:11:56;4.20;99.90
23731;DHT22;12046;44.702;10.622;2023-03-01T15:14:26;4.10;99.90
23731;DHT22;12046;44.702;10.622;2023-03-01T15:16:53;4.20;99.90
23731;DHT22;12046;44.702;10.622;2023-03-01T15:19:19;4.20;99.90
23731;DHT22;12046;44.702;10.622;2023-03-01T15:21:47;4.20;99.90
23731;DHT22;12046;44.702;10.622;2023-03-01T15:24:19;4.20;99.90
23731;DHT22;12046;44.702;10.622;2023-03-01T15:26:49;4.20;99.90
23731;DHT22;12046;44.702;10.622;2023-03-01T15:29:17;4.20;99.90
23731;DHT22;12046;44.702;10.622;2023-03-01T15:31:43;4.20;99.90
23731;DHT22;12046;44.702;10.622;2023-03-01T15:34:34;4.20;99.90
23731;DHT22;12046;44.702;10.622;2023-03-01T15:37:03;4.20;99.90
23731;DHT22;12046;44.702;10.622;2023-03-01T15:39:43;4.20;99.90
23731;DHT22;12046;44.702;10.622;2023-03-01T15:44:49;4.20;99.90
23731;DHT22;12046;44.702;10.622;2023-03-01T15:47:22;4.20;99.90
23731;DHT22;12046;44.702;10.622;2023-03-01T15:49:48;4.10;99.90
23731;DHT22;12046;44.702;10.622;2023-03-01T15:52:27;4.10;99.90
23731;DHT22;12046;44.702;10.622;2023-03-01T15:54:57;4.10;99.90
23731;DHT22;12046;44.702;10.622;2023-03-01T15:57:23;4.00;99.90
23731;DHT22;12046;44.702;10.622;2023-03-01T15:59:48;4.00;99.90
23731;DHT22;12046;44.702;10.622;2023-03-01T16:02:14;4.00;99.90
23731;DHT22;12046;44.702;10.622;2023-03-01T16:04:40;4.00;99.90
23731;DHT22;12046;44.702;10.622;2023-03-01T16:07:05;4.00;99.90
23731;DHT22;12046;44.702;10.622;2023-03-01T16:09:31;3.90;99.90
23731;DHT22;12046;44.702;10.622;2023-03-01T16:11:57;3.90;99.90
23731;DHT22;12046;44.702;10.622;2023-03-01T16:14:23;3.90;99.90
23731;DHT22;12046;44.702;10.622;2023-03-01T16:16:48;3.90;99.90
23731;DHT22;12046;44.702;10.622;2023-03-01T16:19:15;3.90;99.90
23731;DHT22;12046;44.702;10.622;2023-03-01T16:21:41;3.90;99.90
23731;DHT22;12046;44.702;10.622;2023-03-01T16:24:08;3.90;99.90
23731;DHT22;12046;44.702;10.622;2023-03-01T16:26:34;3.90;99.90
23731;DHT22;12046;44.702;10.622;2023-03-01T16:29:00;3.90;99.90
23731;DHT22;12046;44.702;10.622;2023-03-01T16:31:26;3.90;99.90
23731;DHT22;12046;44.702;10.622;2023-03-01T16:33:53;3.80;99.90
23731;DHT22;12046;44.702;10.622;2023-03-01T16:36:22;3.90;99.90
23731;DHT22;12046;44.702;10.622;2023-03-01T16:38:49;3.80;99.90
23731;DHT22;12046;44.702;10.622;2023-03-01T16:41:16;3.80;99.90
23731;DHT22;12046;44.702;10.622;2023-03-01T16:43:42;3.80;99.90
23731;DHT22;12046;44.702;10.622;2023-03-01T16:46:14;3.80;99.90
23731;DHT22;12046;44.702;10.622;2023-03-01T16:48:43;3.80;99.90
23731;DHT22;12046;44.702;10.622;2023-03-01T16:51:09;3.90;99.90
23731;DHT22;12046;44.702;10.622;2023-03-01T16:53:35;3.90;99.90
23731;DHT22;12046;44.702;10.622;2023-03-01T16:56:02;3.90;99.90
23731;DHT22;12046;44.702;10.622;2023-03-01T16:58:28;4.00;99.90
23731;DHT22;12046;44.702;10.622;2023-03-01T17:00:54;4.00;99.90
23731;DHT22;12046;44.702;10.622;2023-03-01T17:03:20;4.00;99.90
23731;DHT22;12046;44.702;10.622;2023-03-01T17:05:46;4.00;99.90
23731;DHT22;12046;44.702;10.622;2023-03-01T17:08:12;4.00;99.90
23731;DHT22;12046;44.702;10.622;2023-03-01T17:10:38;3.90;99.90
23731;DHT22;12046;44.702;10.622;2023-03-01T17:13:04;3.90;99.90
23731;DHT22;12046;44.702;10.622;2023-03-01T17:15:29;3.90;99.90
23731;DHT22;12046;44.702;10.622;2023-03-01T17:17:55;3.90;99.90
23731;DHT22;12046;44.702;10.622;2023-03-01T17:20:20;4.00;99.90